createdAt,value
2022-09-24T00:01:41.670Z,4.13
2022-09-24T00:04:12.130Z,4.77
2022-09-24T00:06:42.537Z,4.30
2022-09-24T00:09:10.634Z,5.60
2022-09-24T00:11:39.910Z,4.80
2022-09-24T00:14:08.620Z,5.93
2022-09-24T00:16:38.767Z,7.60
2022-09-24T00:19:07.856Z,5.07
2022-09-24T00:21:36.752Z,4.67
2022-09-24T00:24:08.162Z,4.10
2022-09-24T00:26:50.007Z,6.63
2022-09-24T00:29:20.033Z,3.87
2022-09-24T00:31:48.611Z,3.77
2022-09-24T00:34:17.851Z,5.13
2022-09-24T00:36:46.185Z,3.60
2022-09-24T00:39:14.414Z,5.03
2022-09-24T00:41:44.852Z,3.73
2022-09-24T00:44:51.808Z,3.70
2022-09-24T00:47:27.577Z,3.70
2022-09-24T00:50:06.106Z,3.70
2022-09-24T00:52:34.272Z,4.03
2022-09-24T00:55:02.160Z,4.70
2022-09-24T00:57:30.139Z,4.87
2022-09-24T00:59:58.217Z,4.70
2022-09-24T01:02:26.186Z,4.07
2022-09-24T01:04:56.613Z,3.43
2022-09-24T01:07:26.456Z,3.80
2022-09-24T01:09:54.260Z,5.13
2022-09-24T01:12:33.463Z,3.90
2022-09-24T01:15:12.902Z,5.57
2022-09-24T01:17:49.441Z,3.57
2022-09-24T01:20:42.033Z,4.10
2022-09-24T01:23:24.978Z,4.73
2022-09-24T01:26:08.874Z,3.93
2022-09-24T01:28:52.812Z,3.80
2022-09-24T01:31:28.223Z,4.47
2022-09-24T01:34:00.455Z,3.93
2022-09-24T01:36:31.076Z,3.63
2022-09-24T01:38:59.607Z,3.60
2022-09-24T01:41:27.879Z,4.00
2022-09-24T01:43:55.880Z,4.63
2022-09-24T01:46:25.594Z,5.03
2022-09-24T01:48:53.639Z,5.50
2022-09-24T01:51:26.618Z,4.37
2022-09-24T01:54:01.579Z,5.33
2022-09-24T01:56:34.623Z,6.00
2022-09-24T01:59:06.696Z,3.73
2022-09-24T02:01:41.441Z,6.70
2022-09-24T02:04:16.648Z,3.90
2022-09-24T02:06:51.744Z,7.50
2022-09-24T02:09:33.894Z,3.77
2022-09-24T02:12:06.933Z,3.63
2022-09-24T02:14:40.999Z,3.77
2022-09-24T02:17:11.828Z,3.93
2022-09-24T02:19:42.727Z,3.80
2022-09-24T02:22:13.742Z,3.90
2022-09-24T02:24:46.685Z,3.80
2022-09-24T02:27:14.770Z,3.60
2022-09-24T02:29:42.513Z,4.20
2022-09-24T02:32:15.603Z,3.90
2022-09-24T02:34:47.101Z,3.80
2022-09-24T02:37:17.092Z,3.37
2022-09-24T02:39:44.973Z,3.57
2022-09-24T02:42:15.675Z,3.80
2022-09-24T02:44:43.532Z,3.77
2022-09-24T02:47:12.671Z,3.53
2022-09-24T02:49:40.511Z,3.50
2022-09-24T02:52:08.269Z,3.40
2022-09-24T02:54:36.040Z,3.47
2022-09-24T02:57:03.788Z,3.93
2022-09-24T02:59:31.648Z,3.67
2022-09-24T03:01:59.669Z,3.73
2022-09-24T03:04:30.658Z,3.70
2022-09-24T03:06:58.633Z,3.83
2022-09-24T03:09:26.410Z,3.50
2022-09-24T03:11:54.131Z,4.07
2022-09-24T03:14:21.918Z,3.83
2022-09-24T03:16:49.738Z,4.37
2022-09-24T03:19:17.488Z,3.60
2022-09-24T03:21:46.832Z,3.70
2022-09-24T03:24:14.599Z,5.03
2022-09-24T03:26:42.632Z,4.77
2022-09-24T03:29:11.104Z,4.40
2022-09-24T03:31:38.941Z,3.40
2022-09-24T03:34:06.854Z,4.40
2022-09-24T03:36:34.760Z,4.27
2022-09-24T03:39:03.888Z,3.80
2022-09-24T03:41:31.713Z,3.93
2022-09-24T03:43:59.558Z,4.40
2022-09-24T03:46:28.421Z,3.50
2022-09-24T03:48:56.570Z,3.57
2022-09-24T03:51:24.468Z,3.10
2022-09-24T03:53:52.399Z,3.63
2022-09-24T03:56:21.595Z,4.60
2022-09-24T03:58:49.461Z,4.87
2022-09-24T04:01:20.684Z,3.50
2022-09-24T04:03:48.629Z,3.50
2022-09-24T04:06:17.897Z,3.83
2022-09-24T04:08:47.484Z,3.50
2022-09-24T04:11:15.232Z,4.20
2022-09-24T04:13:44.687Z,6.63
2022-09-24T04:16:12.447Z,3.33
2022-09-24T04:18:40.716Z,3.67
2022-09-24T04:21:08.672Z,3.47
2022-09-24T04:23:36.498Z,5.50
2022-09-24T04:26:04.401Z,2.93
2022-09-24T04:28:32.474Z,3.80
2022-09-24T04:31:01.668Z,3.53
2022-09-24T04:33:30.317Z,3.33
2022-09-24T04:35:58.056Z,3.03
2022-09-24T04:38:25.808Z,4.37
2022-09-24T04:40:53.688Z,4.00
2022-09-24T04:43:21.627Z,7.13
2022-09-24T04:45:49.361Z,3.37
2022-09-24T04:48:18.448Z,3.43
2022-09-24T04:50:46.635Z,5.73
2022-09-24T04:53:15.220Z,3.63
2022-09-24T04:55:43.057Z,7.30
2022-09-24T04:58:11.151Z,3.47
2022-09-24T05:00:39.387Z,4.17
2022-09-24T05:03:07.162Z,5.83
2022-09-24T05:05:36.707Z,4.10
2022-09-24T05:08:04.826Z,3.53
2022-09-24T05:10:33.601Z,4.47
2022-09-24T05:13:02.163Z,3.80
2022-09-24T05:15:30.093Z,3.60
2022-09-24T05:17:57.918Z,3.60
2022-09-24T05:20:26.032Z,3.70
2022-09-24T05:22:55.407Z,3.53
2022-09-24T05:25:23.594Z,3.97
2022-09-24T05:27:52.985Z,4.90
2022-09-24T05:30:22.270Z,3.80
2022-09-24T05:32:52.272Z,3.87
2022-09-24T05:35:20.650Z,3.77
2022-09-24T05:37:49.555Z,5.43
2022-09-24T05:40:36.820Z,3.83
2022-09-24T05:43:05.651Z,3.63
2022-09-24T05:45:33.680Z,3.87
2022-09-24T05:48:01.758Z,4.37
2022-09-24T05:50:29.626Z,3.97
2022-09-24T05:52:57.477Z,3.40
2022-09-24T05:55:32.217Z,4.60
2022-09-24T05:58:04.458Z,5.70
2022-09-24T06:00:32.481Z,3.20
2022-09-24T06:03:07.969Z,3.30
2022-09-24T06:05:36.238Z,4.10
2022-09-24T06:08:04.032Z,6.73
2022-09-24T06:10:33.454Z,4.83
2022-09-24T06:13:01.597Z,3.40
2022-09-24T06:15:29.346Z,4.53
2022-09-24T06:17:57.334Z,4.07
2022-09-24T06:20:25.173Z,3.87
2022-09-24T06:22:57.167Z,3.87
2022-09-24T06:25:25.001Z,4.10
2022-09-24T06:28:00.214Z,4.13
2022-09-24T06:30:29.089Z,3.23
2022-09-24T06:33:01.868Z,2.90
2022-09-24T06:35:29.647Z,3.03
2022-09-24T06:37:57.394Z,2.87
2022-09-24T06:40:26.490Z,3.10
2022-09-24T06:42:55.946Z,2.83
2022-09-24T06:45:24.004Z,2.80
2022-09-24T06:47:55.699Z,3.33
2022-09-24T06:50:25.348Z,4.87
2022-09-24T06:52:53.303Z,2.90
2022-09-24T06:55:21.117Z,2.70
2022-09-24T06:57:48.964Z,3.17
2022-09-24T07:00:18.330Z,2.90
2022-09-24T07:02:52.560Z,2.80
2022-09-24T07:05:20.322Z,4.00
2022-09-24T07:07:48.131Z,3.63
2022-09-24T07:10:17.209Z,3.63
2022-09-24T07:12:45.386Z,3.87
2022-09-24T07:15:13.221Z,2.83
2022-09-24T07:17:42.356Z,3.07
2022-09-24T07:20:10.724Z,2.47
2022-09-24T07:22:39.609Z,5.03
2022-09-24T07:25:09.468Z,3.07
2022-09-24T07:27:37.372Z,2.73
2022-09-24T07:30:07.077Z,4.70
2022-09-24T07:32:35.157Z,3.60
2022-09-24T07:35:04.568Z,3.37
2022-09-24T07:37:34.016Z,3.30
2022-09-24T07:40:12.006Z,4.70
2022-09-24T07:42:48.384Z,5.83
2022-09-24T07:45:17.208Z,3.93
2022-09-24T07:47:44.963Z,3.37
2022-09-24T07:50:14.234Z,3.17
2022-09-24T07:52:41.965Z,2.70
2022-09-24T07:55:10.032Z,3.50
2022-09-24T07:57:38.207Z,2.73
2022-09-24T08:00:10.552Z,4.03
2022-09-24T08:02:39.311Z,3.30
2022-09-24T08:05:08.101Z,3.60
2022-09-24T08:07:37.346Z,3.10
2022-09-24T08:10:06.245Z,4.53
2022-09-24T08:12:34.461Z,3.30
2022-09-24T08:15:02.224Z,5.97
2022-09-24T08:17:29.956Z,3.40
2022-09-24T08:19:57.815Z,3.00
2022-09-24T08:22:26.404Z,3.17
2022-09-24T08:24:57.416Z,4.10
2022-09-24T08:27:25.272Z,3.00
2022-09-24T08:29:53.370Z,4.70
2022-09-24T08:32:21.175Z,3.33
2022-09-24T08:34:48.947Z,7.20
2022-09-24T08:37:16.791Z,4.00
2022-09-24T08:39:44.582Z,3.40
2022-09-24T08:42:21.084Z,2.90
2022-09-24T08:45:08.768Z,5.17
2022-09-24T08:47:42.893Z,3.23
2022-09-24T08:50:17.392Z,7.20
2022-09-24T08:52:58.445Z,5.10
2022-09-24T08:55:35.795Z,3.50
2022-09-24T08:58:22.588Z,3.63
2022-09-24T09:00:56.511Z,3.90
2022-09-24T09:03:35.957Z,4.77
2022-09-24T09:06:06.216Z,4.40
2022-09-24T09:09:05.538Z,4.70
2022-09-24T09:11:34.002Z,4.20
2022-09-24T09:14:07.477Z,3.63
2022-09-24T09:16:49.608Z,4.37
2022-09-24T09:19:18.479Z,3.83
2022-09-24T09:21:52.567Z,3.20
2022-09-24T09:24:23.479Z,2.80
2022-09-24T09:26:54.584Z,5.60
2022-09-24T09:29:27.961Z,3.07
2022-09-24T09:32:06.433Z,4.37
2022-09-24T09:34:49.898Z,2.77
2022-09-24T09:37:28.554Z,3.07
2022-09-24T09:40:09.902Z,3.13
2022-09-24T09:42:40.492Z,5.07
2022-09-24T09:45:28.067Z,4.20
2022-09-24T09:47:58.062Z,3.37
2022-09-24T09:50:29.003Z,4.77
2022-09-24T09:52:57.232Z,6.00
2022-09-24T09:55:27.547Z,3.50
2022-09-24T09:58:11.273Z,3.87
2022-09-24T10:00:40.601Z,5.33
2022-09-24T10:03:30.395Z,4.13
2022-09-24T10:06:01.449Z,3.37
2022-09-24T10:08:29.551Z,3.60
2022-09-24T10:10:58.696Z,6.47
2022-09-24T10:13:27.461Z,4.00
2022-09-24T10:15:58.520Z,3.83
2022-09-24T10:18:32.797Z,4.20
2022-09-24T10:21:03.644Z,3.93
2022-09-24T10:23:37.061Z,3.67
2022-09-24T10:26:06.421Z,4.73
2022-09-24T10:28:54.023Z,4.60
2022-09-24T10:31:24.567Z,4.20
2022-09-24T10:33:56.122Z,4.70
2022-09-24T10:36:26.067Z,4.30
2022-09-24T10:39:04.097Z,5.70
2022-09-24T10:41:32.725Z,4.63
2022-09-24T10:44:04.736Z,4.63
2022-09-24T10:46:59.945Z,7.17
2022-09-24T10:49:42.159Z,5.07
2022-09-24T10:52:19.837Z,5.97
2022-09-24T10:55:18.664Z,4.20
2022-09-24T10:57:58.673Z,4.70
2022-09-24T11:00:35.832Z,5.17
2022-09-24T11:03:36.761Z,4.53
2022-09-24T11:06:18.090Z,5.53
2022-09-24T11:09:04.625Z,5.27
2022-09-24T11:11:47.907Z,4.80
2022-09-24T11:14:32.308Z,5.50
2022-09-24T11:17:34.823Z,5.00
2022-09-24T11:20:26.168Z,5.43
2022-09-24T11:23:22.229Z,4.80
2022-09-24T11:26:00.301Z,5.90
2022-09-24T11:28:51.566Z,6.07
2022-09-24T11:31:27.076Z,5.30
2022-09-24T11:34:15.637Z,4.37
2022-09-24T11:37:02.749Z,5.50
2022-09-24T11:39:43.896Z,5.03
2022-09-24T11:42:23.137Z,5.03
2022-09-24T11:45:15.137Z,5.30
2022-09-24T11:48:03.841Z,4.70
2022-09-24T11:50:45.051Z,4.80
2022-09-24T11:53:25.834Z,4.60
2022-09-24T11:55:58.929Z,5.60
2022-09-24T11:58:32.661Z,5.27
2022-09-24T12:01:07.355Z,4.90
2022-09-24T12:03:43.737Z,5.67
2022-09-24T12:06:15.812Z,5.23
2022-09-24T12:08:52.318Z,5.50
2022-09-24T12:11:28.149Z,5.00
2022-09-24T12:14:02.685Z,5.13
2022-09-24T12:16:34.825Z,5.13
2022-09-24T12:19:10.110Z,5.20
2022-09-24T12:21:41.234Z,5.00
2022-09-24T12:24:17.181Z,5.23
2022-09-24T12:26:46.679Z,6.00
2022-09-24T12:29:51.914Z,5.07
2022-09-24T12:32:46.093Z,5.97
2022-09-24T12:35:25.901Z,5.50
2022-09-24T12:38:01.915Z,5.13
2022-09-24T12:40:56.070Z,5.43
2022-09-24T12:43:31.453Z,5.00
2022-09-24T12:46:03.018Z,4.90
2022-09-24T12:48:37.381Z,6.03
2022-09-24T12:51:10.236Z,4.70
2022-09-24T12:53:41.643Z,5.33
2022-09-24T12:56:12.330Z,5.17
2022-09-24T12:58:44.943Z,5.13
2022-09-24T13:01:15.737Z,4.60
2022-09-24T13:03:47.140Z,5.47
2022-09-24T13:06:24.590Z,5.10
2022-09-24T13:08:52.461Z,5.13
2022-09-24T13:11:32.194Z,4.90
2022-09-24T13:14:22.858Z,6.47
2022-09-24T13:16:53.809Z,4.60
2022-09-24T13:19:36.233Z,4.30
2022-09-24T13:22:04.801Z,4.70
2022-09-24T13:24:37.187Z,5.03
2022-09-24T13:27:22.289Z,4.27
2022-09-24T13:30:03.639Z,4.00
2022-09-24T13:32:35.535Z,6.20
2022-09-24T13:35:11.181Z,4.57
2022-09-24T13:37:42.550Z,5.20
2022-09-24T13:40:19.882Z,4.67
2022-09-24T13:42:55.609Z,4.87
2022-09-24T13:45:25.314Z,4.93
2022-09-24T13:47:57.081Z,4.63
2022-09-24T13:50:28.891Z,5.07
2022-09-24T13:53:00.464Z,4.57
2022-09-24T13:55:33.099Z,5.23
2022-09-24T13:58:02.357Z,4.77
2022-09-24T14:00:32.461Z,5.07
2022-09-24T14:03:04.150Z,4.80
2022-09-24T14:05:36.449Z,4.77
2022-09-24T14:08:08.607Z,4.80
2022-09-24T14:10:37.023Z,5.17
2022-09-24T14:13:17.455Z,5.23
2022-09-24T14:15:56.991Z,4.23
2022-09-24T14:18:26.407Z,4.40
2022-09-24T14:20:58.861Z,5.37
2022-09-24T14:23:35.618Z,5.70
2022-09-24T14:26:05.598Z,4.80
2022-09-24T14:28:35.820Z,4.33
2022-09-24T14:31:08.267Z,4.63
2022-09-24T14:33:40.070Z,6.60
2022-09-24T14:36:12.388Z,4.60
2022-09-24T14:38:53.738Z,4.73
2022-09-24T14:41:24.940Z,4.70
2022-09-24T14:43:56.208Z,4.67
2022-09-24T14:46:27.830Z,5.33
2022-09-24T14:49:05.775Z,4.97
2022-09-24T14:51:34.023Z,4.60
2022-09-24T14:54:04.154Z,4.60
2022-09-24T14:56:33.596Z,5.93
2022-09-24T14:59:02.888Z,5.03
2022-09-24T15:01:33.284Z,4.87
2022-09-24T15:04:03.991Z,5.20
2022-09-24T15:06:33.781Z,5.57
2022-09-24T15:09:03.939Z,6.47
2022-09-24T15:11:34.206Z,7.07
2022-09-24T15:14:14.757Z,7.17
2022-09-24T15:16:43.721Z,6.93
2022-09-24T15:19:19.636Z,9.03
2022-09-24T15:21:49.281Z,11.53
2022-09-24T15:24:17.956Z,11.47
2022-09-24T15:26:47.839Z,12.33
2022-09-24T15:29:24.301Z,10.83
2022-09-24T15:31:52.451Z,11.20
2022-09-24T15:34:20.574Z,10.40
2022-09-24T15:36:48.923Z,11.80
2022-09-24T15:39:19.844Z,11.80
2022-09-24T15:41:47.707Z,11.90
2022-09-24T15:44:23.090Z,13.13
2022-09-24T15:46:52.098Z,12.90
2022-09-24T15:49:22.054Z,11.70
2022-09-24T15:51:52.278Z,12.37
2022-09-24T15:54:21.708Z,14.87
2022-09-24T15:56:52.644Z,13.33
2022-09-24T15:59:23.339Z,12.40
2022-09-24T16:01:54.328Z,11.97
2022-09-24T16:04:22.324Z,13.80
2022-09-24T16:06:50.602Z,17.90
2022-09-24T16:09:18.712Z,13.50
2022-09-24T16:11:46.834Z,14.10
2022-09-24T16:14:14.663Z,13.03
2022-09-24T16:16:44.071Z,14.33
2022-09-24T16:19:12.535Z,14.67
2022-09-24T16:21:40.710Z,15.07
2022-09-24T16:24:08.573Z,15.03
2022-09-24T16:26:37.336Z,15.63
2022-09-24T16:29:08.995Z,16.20
2022-09-24T16:31:39.627Z,18.00
2022-09-24T16:34:08.886Z,23.67
2022-09-24T16:36:36.749Z,21.93
2022-09-24T16:39:05.102Z,17.07
2022-09-24T16:41:35.721Z,16.40
2022-09-24T16:44:04.796Z,17.63
2022-09-24T16:46:32.666Z,17.10
2022-09-24T16:49:00.558Z,18.60
2022-09-24T16:51:29.775Z,19.77
2022-09-24T16:53:57.912Z,19.37
2022-09-24T16:56:26.423Z,20.93
2022-09-24T16:58:54.431Z,20.53
2022-09-24T17:01:23.347Z,21.90
2022-09-24T17:03:52.824Z,21.37
2022-09-24T17:06:22.574Z,21.97
2022-09-24T17:09:09.328Z,22.00
2022-09-24T17:11:40.594Z,21.40
2022-09-24T17:14:11.528Z,20.90
2022-09-24T17:16:39.722Z,21.53
2022-09-24T17:19:08.225Z,19.90
2022-09-24T17:21:36.842Z,20.77
2022-09-24T17:24:06.418Z,20.57
2022-09-24T17:26:34.850Z,20.33
2022-09-24T17:29:03.197Z,19.07
2022-09-24T17:31:31.929Z,21.03
2022-09-24T17:34:01.708Z,21.03
2022-09-24T17:36:31.028Z,22.93
2022-09-24T17:38:59.353Z,19.67
2022-09-24T17:41:30.262Z,21.80
2022-09-24T17:44:00.246Z,19.33
2022-09-24T17:46:29.804Z,20.13
2022-09-24T17:48:59.414Z,20.87
2022-09-24T17:51:30.310Z,23.47
2022-09-24T17:53:58.079Z,41.33
2022-09-24T17:56:29.323Z,41.67
2022-09-24T17:58:57.503Z,24.43
2022-09-24T18:01:27.763Z,21.50
2022-09-24T18:03:57.573Z,20.43
2022-09-24T18:06:30.523Z,20.93
2022-09-24T18:09:02.667Z,31.23
2022-09-24T18:11:33.578Z,27.17
2022-09-24T18:14:03.230Z,20.07
2022-09-24T18:16:32.430Z,18.70
2022-09-24T18:19:01.588Z,16.93
2022-09-24T18:21:30.598Z,18.83
2022-09-24T18:24:00.493Z,20.30
2022-09-24T18:26:32.412Z,22.27
2022-09-24T18:29:03.988Z,18.83
2022-09-24T18:31:33.333Z,17.20
2022-09-24T18:34:03.991Z,18.23
2022-09-24T18:36:32.825Z,18.33
2022-09-24T18:39:00.870Z,19.43
2022-09-24T18:41:30.751Z,20.50
2022-09-24T18:43:59.721Z,22.30
2022-09-24T18:46:30.918Z,22.23
2022-09-24T18:49:00.473Z,22.13
2022-09-24T18:51:32.181Z,22.07
2022-09-24T18:54:03.079Z,20.73
2022-09-24T18:56:31.563Z,20.27
2022-09-24T18:59:09.484Z,21.17
2022-09-24T19:01:40.284Z,19.43
2022-09-24T19:04:10.670Z,19.03
2022-09-24T19:06:40.113Z,20.07
2022-09-24T19:09:09.150Z,18.30
2022-09-24T19:11:38.183Z,18.83
2022-09-24T19:14:06.566Z,18.17
2022-09-24T19:16:34.627Z,18.23
2022-09-24T19:19:06.778Z,19.83
2022-09-24T19:21:34.711Z,25.80
2022-09-24T19:24:03.227Z,23.30
2022-09-24T19:26:33.753Z,20.33
2022-09-24T19:29:02.410Z,19.37
2022-09-24T19:31:32.548Z,19.47
2022-09-24T19:34:03.065Z,19.83
2022-09-24T19:36:36.209Z,18.47
2022-09-24T19:39:06.683Z,19.70
2022-09-24T19:41:34.568Z,19.97
2022-09-24T19:44:08.228Z,22.70
2022-09-24T19:46:38.355Z,20.23
2022-09-24T19:49:07.575Z,22.10
2022-09-24T19:51:37.703Z,21.07
2022-09-24T19:54:07.928Z,19.90
2022-09-24T19:56:36.398Z,18.73
2022-09-24T19:59:05.070Z,19.03
2022-09-24T20:01:34.247Z,17.73
2022-09-24T20:04:05.156Z,19.47
2022-09-24T20:06:34.969Z,18.90
2022-09-24T20:09:04.973Z,17.40
2022-09-24T20:11:33.345Z,18.47
2022-09-24T20:14:01.744Z,17.60
2022-09-24T20:16:32.562Z,17.50
2022-09-24T20:19:01.651Z,17.77
2022-09-24T20:21:32.274Z,18.80
2022-09-24T20:24:01.356Z,18.50
2022-09-24T20:26:48.516Z,17.83
2022-09-24T20:29:19.620Z,16.33
2022-09-24T20:31:52.537Z,15.20
2022-09-24T20:34:22.001Z,17.33
2022-09-24T20:36:50.762Z,13.90
2022-09-24T20:39:19.041Z,14.10
2022-09-24T20:41:49.289Z,18.37
2022-09-24T20:44:17.232Z,16.37
2022-09-24T20:46:45.258Z,14.33
2022-09-24T20:49:19.236Z,15.00
2022-09-24T20:51:47.066Z,15.07
2022-09-24T20:54:15.019Z,14.93
2022-09-24T20:56:43.223Z,15.20
2022-09-24T20:59:12.433Z,13.00
2022-09-24T21:01:41.499Z,13.03
2022-09-24T21:04:09.383Z,12.50
2022-09-24T21:06:37.408Z,11.50
2022-09-24T21:09:05.487Z,10.27
2022-09-24T21:11:33.516Z,10.60
2022-09-24T21:14:02.926Z,10.10
2022-09-24T21:16:34.692Z,8.97
2022-09-24T21:19:04.754Z,9.03
2022-09-24T21:21:35.489Z,8.73
2022-09-24T21:24:03.596Z,9.67
2022-09-24T21:26:33.588Z,9.17
2022-09-24T21:29:03.475Z,8.10
2022-09-24T21:31:33.962Z,7.80
2022-09-24T21:34:02.084Z,7.63
2022-09-24T21:36:32.296Z,7.50
2022-09-24T21:39:01.749Z,6.23
2022-09-24T21:41:31.667Z,6.90
2022-09-24T21:44:00.359Z,7.67
2022-09-24T21:46:31.099Z,6.60
2022-09-24T21:49:01.117Z,7.20
2022-09-24T21:51:30.110Z,7.23
2022-09-24T21:54:00.984Z,6.97
2022-09-24T21:56:29.431Z,6.13
2022-09-24T21:58:57.413Z,6.00
2022-09-24T22:01:27.622Z,6.20
2022-09-24T22:03:56.626Z,5.63
2022-09-24T22:06:28.686Z,5.90
2022-09-24T22:08:57.845Z,5.47
2022-09-24T22:11:26.398Z,10.50
2022-09-24T22:13:54.735Z,8.20
2022-09-24T22:16:23.159Z,5.70
2022-09-24T22:18:51.023Z,6.90
2022-09-24T22:21:18.842Z,5.57
2022-09-24T22:23:48.256Z,5.13
2022-09-24T22:26:16.015Z,5.37
2022-09-24T22:28:43.941Z,4.70
2022-09-24T22:31:13.755Z,5.60
2022-09-24T22:33:59.272Z,4.87
2022-09-24T22:36:31.186Z,5.17
2022-09-24T22:39:01.885Z,5.93
2022-09-24T22:41:30.889Z,7.00
2022-09-24T22:43:59.334Z,5.70
2022-09-24T22:46:27.965Z,5.87
2022-09-24T22:48:56.476Z,7.93
2022-09-24T22:51:26.408Z,5.53
2022-09-24T22:53:55.091Z,5.70
2022-09-24T22:56:26.128Z,6.27
2022-09-24T22:58:55.917Z,6.67
2022-09-24T23:01:25.722Z,6.30
2022-09-24T23:03:55.649Z,6.50
2022-09-24T23:06:23.902Z,6.57
2022-09-24T23:08:53.099Z,6.63
2022-09-24T23:11:23.291Z,5.70
2022-09-24T23:13:56.020Z,5.80
2022-09-24T23:16:26.087Z,6.00
2022-09-24T23:18:56.112Z,6.40
2022-09-24T23:21:26.758Z,5.70
2022-09-24T23:23:55.221Z,5.50
2022-09-24T23:26:42.259Z,4.77
2022-09-24T23:29:12.445Z,4.40
2022-09-24T23:31:40.611Z,4.80
2022-09-24T23:34:08.528Z,5.13
2022-09-24T23:36:37.838Z,4.97
2022-09-24T23:39:06.250Z,6.07
2022-09-24T23:41:34.474Z,5.80
2022-09-24T23:44:02.863Z,6.43
2022-09-24T23:46:33.813Z,5.90
2022-09-24T23:49:01.823Z,5.30
2022-09-24T23:51:29.713Z,5.90
2022-09-24T23:53:57.587Z,5.30
2022-09-24T23:56:25.398Z,5.50
2022-09-24T23:58:53.342Z,5.53
